createdAt,value
2023-04-08T00:00:20.583Z,50.908138
2023-04-08T00:01:20.598Z,50.908138
2023-04-08T00:02:20.691Z,50.908134
2023-04-08T00:03:20.650Z,50.908092
2023-04-08T00:04:20.623Z,50.908123
2023-04-08T00:05:20.542Z,50.908123
2023-04-08T00:06:20.571Z,50.908222
2023-04-08T00:07:20.523Z,50.908230
2023-04-08T00:08:20.539Z,50.908188
2023-04-08T00:09:20.513Z,50.908157
2023-04-08T00:10:20.509Z,50.908127
2023-04-08T00:11:20.512Z,50.908005
2023-04-08T00:12:20.487Z,50.908028
2023-04-08T00:13:20.479Z,50.908028
2023-04-08T00:14:20.478Z,50.908077
2023-04-08T00:15:20.461Z,50.908100
2023-04-08T00:16:20.544Z,50.908051
2023-04-08T00:17:20.452Z,50.908066
2023-04-08T00:18:20.444Z,50.908119
2023-04-08T00:19:20.426Z,50.908081
2023-04-08T00:20:20.424Z,50.908104
2023-04-08T00:21:20.442Z,50.908115
2023-04-08T00:22:20.431Z,50.908115
2023-04-08T00:23:20.408Z,50.908108
2023-04-08T00:24:20.399Z,50.908096
2023-04-08T00:25:21.121Z,50.908134
2023-04-08T00:26:20.425Z,50.908089
2023-04-08T00:27:20.367Z,50.908070
2023-04-08T00:28:20.358Z,50.908112
2023-04-08T00:29:20.360Z,50.908073
2023-04-08T00:30:20.370Z,50.908154
2023-04-08T00:31:20.432Z,50.908138
2023-04-08T00:32:20.354Z,50.908127
2023-04-08T00:33:20.331Z,50.908154
2023-04-08T00:34:20.315Z,50.908157
2023-04-08T00:35:20.333Z,50.908085
2023-04-08T00:36:20.331Z,50.908127
2023-04-08T00:37:20.297Z,50.908089
2023-04-08T00:38:20.280Z,50.908077
2023-04-08T00:39:20.274Z,50.907970
2023-04-08T00:40:20.269Z,50.907959
2023-04-08T00:41:20.285Z,50.908058
2023-04-08T00:42:20.252Z,50.908077
2023-04-08T00:43:20.247Z,50.908085
2023-04-08T00:44:20.240Z,50.908092
2023-04-08T00:45:20.231Z,50.908081
2023-04-08T00:46:20.300Z,50.908089
2023-04-08T00:47:20.244Z,50.908085
2023-04-08T00:48:20.205Z,50.908092
2023-04-08T00:49:20.207Z,50.908077
2023-04-08T00:50:20.199Z,50.908054
2023-04-08T00:51:20.236Z,50.908092
2023-04-08T00:52:20.187Z,50.908115
2023-04-08T00:53:20.198Z,50.908085
2023-04-08T00:54:20.166Z,50.908070
2023-04-08T00:55:20.159Z,50.908020
2023-04-08T00:56:20.177Z,50.907959
2023-04-08T00:57:20.153Z,50.907993
2023-04-08T00:58:20.141Z,50.908043
2023-04-08T00:59:20.125Z,50.908039
2023-04-08T01:00:20.123Z,50.908035
2023-04-08T01:01:20.144Z,50.908073
2023-04-08T01:02:20.208Z,50.908024
2023-04-08T01:03:20.320Z,50.908051
2023-04-08T01:04:20.170Z,50.908035
2023-04-08T01:05:20.081Z,50.908043
2023-04-08T01:06:20.066Z,50.908062
2023-04-08T01:07:20.087Z,50.908077
2023-04-08T01:08:20.062Z,50.908062
2023-04-08T01:09:20.049Z,50.907768
2023-04-08T01:10:20.048Z,50.907982
2023-04-08T01:11:20.038Z,50.908047
2023-04-08T01:12:20.060Z,50.908043
2023-04-08T01:13:20.018Z,50.908039
2023-04-08T01:14:20.034Z,50.908089
2023-04-08T01:15:20.002Z,50.908230
2023-04-08T01:16:20.045Z,50.908131
2023-04-08T01:17:20.112Z,50.908092
2023-04-08T01:18:19.981Z,50.908073
2023-04-08T01:19:19.976Z,50.908188
2023-04-08T01:20:19.965Z,50.908157
2023-04-08T01:21:19.962Z,50.908138
2023-04-08T01:22:19.992Z,50.908157
2023-04-08T01:23:19.949Z,50.908249
2023-04-08T01:24:19.944Z,50.908146
2023-04-08T01:25:19.941Z,50.908134
2023-04-08T01:26:19.920Z,50.908157
2023-04-08T01:27:19.941Z,50.908081
2023-04-08T01:28:19.925Z,50.908112
2023-04-08T01:29:19.903Z,50.908142
2023-04-08T01:30:19.920Z,50.908161
2023-04-08T01:31:19.953Z,50.908199
2023-04-08T01:32:19.917Z,50.908199
2023-04-08T01:33:19.874Z,50.908199
2023-04-08T01:34:19.877Z,50.908199
2023-04-08T01:35:19.873Z,50.908199
2023-04-08T01:36:19.847Z,50.908199
2023-04-08T01:37:19.862Z,50.908199
2023-04-08T01:38:19.830Z,50.908199
2023-04-08T01:39:19.827Z,50.908199
2023-04-08T01:40:19.826Z,50.908199
2023-04-08T01:41:19.818Z,50.908199
2023-04-08T01:42:19.828Z,50.908199
2023-04-08T01:43:19.795Z,50.908199
2023-04-08T01:44:19.787Z,50.908199
2023-04-08T01:45:19.795Z,50.908199
2023-04-08T01:46:19.790Z,50.908199
2023-04-08T01:47:19.798Z,50.908199
2023-04-08T01:48:19.763Z,50.908199
2023-04-08T01:49:19.752Z,50.908199
2023-04-08T01:50:19.760Z,50.908199
2023-04-08T01:51:19.731Z,50.908199
2023-04-08T01:52:19.761Z,50.908199
2023-04-08T01:53:19.722Z,50.908199
2023-04-08T01:54:19.711Z,50.908199
2023-04-08T01:55:19.703Z,50.908199
2023-04-08T01:56:19.701Z,50.908199
2023-04-08T01:57:19.712Z,50.908199
2023-04-08T01:58:19.693Z,50.908199
2023-04-08T01:59:19.676Z,50.908199
2023-04-08T02:00:19.668Z,50.908199
2023-04-08T02:01:19.673Z,50.908199
2023-04-08T02:02:19.735Z,50.908199
2023-04-08T02:03:19.829Z,50.908199
2023-04-08T02:04:19.740Z,50.908199
2023-04-08T02:05:19.636Z,50.908199
2023-04-08T02:06:19.628Z,50.908199
2023-04-08T02:07:19.645Z,50.908199
2023-04-08T02:08:19.612Z,50.908199
2023-04-08T02:09:19.624Z,50.908199
2023-04-08T02:10:19.596Z,50.908199
2023-04-08T02:11:19.587Z,50.908199
2023-04-08T02:12:19.583Z,50.908199
2023-04-08T02:13:19.594Z,50.908199
2023-04-08T02:14:19.588Z,50.908279
2023-04-08T02:15:19.567Z,50.908287
2023-04-08T02:16:19.594Z,50.908142
2023-04-08T02:17:19.548Z,50.908142
2023-04-08T02:18:19.564Z,50.908264
2023-04-08T02:19:19.532Z,50.908222
2023-04-08T02:20:19.522Z,50.908264
2023-04-08T02:21:19.532Z,50.908253
2023-04-08T02:22:19.512Z,50.908264
2023-04-08T02:23:19.516Z,50.908131
2023-04-08T02:24:19.491Z,50.908085
2023-04-08T02:25:19.478Z,50.908138
2023-04-08T02:26:19.470Z,50.908146
2023-04-08T02:27:19.461Z,50.908119
2023-04-08T02:28:19.482Z,50.908169
2023-04-08T02:29:19.440Z,50.908154
2023-04-08T02:30:19.456Z,50.908157
2023-04-08T02:31:19.470Z,50.908154
2023-04-08T02:32:19.425Z,50.908161
2023-04-08T02:33:19.449Z,50.908119
2023-04-08T02:34:19.408Z,50.908108
2023-04-08T02:35:19.428Z,50.908134
2023-04-08T02:36:19.388Z,50.908138
2023-04-08T02:37:20.384Z,50.908115
2023-04-08T02:38:19.421Z,50.908134
2023-04-08T02:39:19.377Z,50.908146
2023-04-08T02:40:19.372Z,50.908119
2023-04-08T02:41:19.354Z,50.908119
2023-04-08T02:42:19.354Z,50.908089
2023-04-08T02:43:19.365Z,50.908100
2023-04-08T02:44:19.322Z,50.908112
2023-04-08T02:45:19.332Z,50.908127
2023-04-08T02:46:19.384Z,50.908089
2023-04-08T02:47:19.320Z,50.908123
2023-04-08T02:48:19.327Z,50.908134
2023-04-08T02:49:19.306Z,50.908123
2023-04-08T02:50:19.294Z,50.908146
2023-04-08T02:51:19.280Z,50.908131
2023-04-08T02:52:19.267Z,50.908108
2023-04-08T02:53:19.279Z,50.908169
2023-04-08T02:54:19.259Z,50.908165
2023-04-08T02:55:19.239Z,50.908154
2023-04-08T02:56:19.238Z,50.908112
2023-04-08T02:57:19.234Z,50.908146
2023-04-08T02:58:19.243Z,50.908180
2023-04-08T02:59:19.205Z,50.908203
2023-04-08T03:00:19.206Z,50.908199
2023-04-08T03:01:19.216Z,50.908203
2023-04-08T03:02:19.259Z,50.908169
2023-04-08T03:03:19.273Z,50.908157
2023-04-08T03:04:19.173Z,50.908169
2023-04-08T03:05:19.164Z,50.908169
2023-04-08T03:06:19.160Z,50.908180
2023-04-08T03:07:19.153Z,50.908192
2023-04-08T03:08:19.172Z,50.908192
2023-04-08T03:09:19.141Z,50.908195
2023-04-08T03:10:19.131Z,50.908169
2023-04-08T03:11:19.119Z,50.908184
2023-04-08T03:12:19.118Z,50.908161
2023-04-08T03:13:19.135Z,50.908142
2023-04-08T03:14:19.107Z,50.908230
2023-04-08T03:15:19.096Z,50.908192
2023-04-08T03:16:19.122Z,50.908142
2023-04-08T03:17:19.068Z,50.908154
2023-04-08T03:18:19.080Z,50.908173
2023-04-08T03:19:19.061Z,50.908184
2023-04-08T03:20:19.044Z,50.908157
2023-04-08T03:21:19.040Z,50.908115
2023-04-08T03:22:19.033Z,50.908150
2023-04-08T03:23:19.050Z,50.908085
2023-04-08T03:24:19.037Z,50.908127
2023-04-08T03:25:19.016Z,50.908165
2023-04-08T03:26:19.008Z,50.908142
2023-04-08T03:27:19.002Z,50.908165
2023-04-08T03:28:19.015Z,50.908154
2023-04-08T03:29:18.974Z,50.908157
2023-04-08T03:30:18.970Z,50.908138
2023-04-08T03:31:18.993Z,50.908134
2023-04-08T03:32:18.952Z,50.908161
2023-04-08T03:33:18.959Z,50.908215
2023-04-08T03:34:18.934Z,50.908253
2023-04-08T03:35:19.033Z,50.908218
2023-04-08T03:36:18.930Z,50.908161
2023-04-08T03:37:18.933Z,50.908161
2023-04-08T03:38:18.942Z,50.908150
2023-04-08T03:39:18.911Z,50.908146
2023-04-08T03:40:18.892Z,50.908165
2023-04-08T03:41:18.885Z,50.908108
2023-04-08T03:42:18.874Z,50.908146
2023-04-08T03:43:18.892Z,50.908199
2023-04-08T03:44:18.856Z,50.908199
2023-04-08T03:45:18.866Z,50.908195
2023-04-08T03:46:18.891Z,50.908157
2023-04-08T03:47:18.845Z,50.908134
2023-04-08T03:48:18.845Z,50.908157
2023-04-08T03:49:18.817Z,50.908184
2023-04-08T03:50:18.810Z,50.908134
2023-04-08T03:51:18.812Z,50.908134
2023-04-08T03:52:18.794Z,50.908104
2023-04-08T03:53:18.817Z,50.908115
2023-04-08T03:54:18.781Z,50.908112
2023-04-08T03:55:18.769Z,50.908096
2023-04-08T03:56:18.764Z,50.908077
2023-04-08T03:57:18.753Z,50.908112
2023-04-08T03:58:18.779Z,50.908165
2023-04-08T03:59:18.736Z,50.908180
2023-04-08T04:00:18.729Z,50.908180
2023-04-08T04:01:18.724Z,50.908176
2023-04-08T04:02:18.783Z,50.908157
2023-04-08T04:03:18.809Z,50.908161
2023-04-08T04:04:19.003Z,50.908165
2023-04-08T04:05:18.689Z,50.908169
2023-04-08T04:06:18.682Z,50.908134
2023-04-08T04:07:18.673Z,50.908169
2023-04-08T04:08:18.684Z,50.908165
2023-04-08T04:09:18.719Z,50.908173
2023-04-08T04:10:18.647Z,50.908180
2023-04-08T04:11:18.640Z,50.908108
2023-04-08T04:12:18.633Z,50.908085
2023-04-08T04:13:18.629Z,50.908108
2023-04-08T04:14:18.641Z,50.908112
2023-04-08T04:15:18.630Z,50.908085
2023-04-08T04:16:18.709Z,50.908142
2023-04-08T04:17:18.586Z,50.908085
2023-04-08T04:18:19.665Z,50.908119
2023-04-08T04:19:18.600Z,50.908115
2023-04-08T04:20:18.568Z,50.908138
2023-04-08T04:21:18.563Z,50.908169
2023-04-08T04:22:18.562Z,50.908119
2023-04-08T04:23:18.552Z,50.908119
2023-04-08T04:24:18.564Z,50.908146
2023-04-08T04:25:18.532Z,50.908146
2023-04-08T04:26:18.530Z,50.908104
2023-04-08T04:27:18.525Z,50.908157
2023-04-08T04:28:18.500Z,50.908138
2023-04-08T04:29:18.529Z,50.908108
2023-04-08T04:30:18.501Z,50.908115
2023-04-08T04:31:18.535Z,50.908173
2023-04-08T04:32:18.475Z,50.908134
2023-04-08T04:33:18.462Z,50.908085
2023-04-08T04:34:18.491Z,50.908142
2023-04-08T04:35:18.545Z,50.908154
2023-04-08T04:36:18.449Z,50.908237
2023-04-08T04:37:18.447Z,50.908184
2023-04-08T04:38:18.433Z,50.908165
2023-04-08T04:39:18.460Z,50.908138
2023-04-08T04:40:18.408Z,50.908138
2023-04-08T04:41:18.430Z,50.908092
2023-04-08T04:42:18.401Z,50.908058
2023-04-08T04:43:18.383Z,50.908119
2023-04-08T04:44:18.404Z,50.908176
2023-04-08T04:45:18.459Z,50.908199
2023-04-08T04:46:18.392Z,50.908089
2023-04-08T04:47:18.353Z,50.907921
2023-04-08T04:48:18.349Z,50.908127
2023-04-08T04:49:18.369Z,50.908150
2023-04-08T04:50:18.326Z,50.908150
2023-04-08T04:51:18.321Z,50.908150
2023-04-08T04:52:18.315Z,50.908188
2023-04-08T04:53:18.305Z,50.908161
2023-04-08T04:54:18.321Z,50.908184
2023-04-08T04:55:18.284Z,50.908264
2023-04-08T04:56:18.280Z,50.908291
2023-04-08T04:57:18.270Z,50.908211
2023-04-08T04:58:18.264Z,50.908211
2023-04-08T04:59:18.286Z,50.908169
2023-04-08T05:00:18.244Z,50.908146
2023-04-08T05:01:18.275Z,50.908115
2023-04-08T05:02:18.485Z,50.908089
2023-04-08T05:03:18.280Z,50.908134
2023-04-08T05:04:18.245Z,50.908123
2023-04-08T05:05:18.236Z,50.908108
2023-04-08T05:06:18.213Z,50.908092
2023-04-08T05:07:18.190Z,50.908131
2023-04-08T05:08:18.193Z,50.908157
2023-04-08T05:09:18.205Z,50.908092
2023-04-08T05:10:18.175Z,50.908089
2023-04-08T05:11:18.164Z,50.908142
2023-04-08T05:12:18.157Z,50.908100
2023-04-08T05:13:18.157Z,50.908081
2023-04-08T05:14:18.164Z,50.908119
2023-04-08T05:15:18.134Z,50.908108
2023-04-08T05:16:18.301Z,50.908131
2023-04-08T05:17:18.116Z,50.908108
2023-04-08T05:18:18.114Z,50.908138
2023-04-08T05:19:18.128Z,50.908134
2023-04-08T05:20:18.102Z,50.908085
2023-04-08T05:21:18.098Z,50.908150
2023-04-08T05:22:18.083Z,50.908184
2023-04-08T05:23:18.076Z,50.908165
2023-04-08T05:24:18.093Z,50.908203
2023-04-08T05:25:18.060Z,50.908192
2023-04-08T05:26:20.251Z,50.908157
2023-04-08T05:27:18.054Z,50.908226
2023-04-08T05:28:18.035Z,50.908154
2023-04-08T05:29:18.055Z,50.908154
2023-04-08T05:30:18.018Z,50.908169
2023-04-08T05:31:18.044Z,50.908176
2023-04-08T05:32:18.005Z,50.908161
2023-04-08T05:33:18.001Z,50.908146
2023-04-08T05:34:18.014Z,50.908123
2023-04-08T05:35:18.006Z,50.908123
2023-04-08T05:36:17.984Z,50.908138
2023-04-08T05:37:17.966Z,50.908180
2023-04-08T05:38:17.970Z,50.908176
2023-04-08T05:39:17.976Z,50.908150
2023-04-08T05:40:17.952Z,50.908146
2023-04-08T05:41:17.935Z,50.908154
2023-04-08T05:42:17.930Z,50.908150
2023-04-08T05:43:17.920Z,50.908157
2023-04-08T05:44:17.946Z,50.908138
2023-04-08T05:45:17.911Z,50.908142
2023-04-08T05:46:17.927Z,50.908112
2023-04-08T05:47:17.896Z,50.908115
2023-04-08T05:48:17.885Z,50.908100
2023-04-08T05:49:17.908Z,50.908112
2023-04-08T05:50:17.875Z,50.908108
2023-04-08T05:51:17.861Z,50.908089
2023-04-08T05:52:17.866Z,50.908108
2023-04-08T05:53:17.860Z,50.908134
2023-04-08T05:54:17.866Z,50.908123
2023-04-08T05:55:17.838Z,50.908134
2023-04-08T05:56:17.821Z,50.908134
2023-04-08T05:57:17.815Z,50.908123
2023-04-08T05:58:17.799Z,50.908085
2023-04-08T05:59:17.822Z,50.908100
2023-04-08T06:00:17.784Z,50.908112
2023-04-08T06:01:17.778Z,50.908073
2023-04-08T06:02:17.793Z,50.908100
2023-04-08T06:03:20.458Z,50.908127
2023-04-08T06:04:18.882Z,50.908169
2023-04-08T06:05:17.747Z,50.908058
2023-04-08T06:06:17.740Z,50.908077
2023-04-08T06:07:17.729Z,50.908100
2023-04-08T06:08:17.725Z,50.908100
2023-04-08T06:09:17.743Z,50.908092
2023-04-08T06:10:17.714Z,50.908100
2023-04-08T06:11:17.697Z,50.908127
2023-04-08T06:12:17.683Z,50.908062
2023-04-08T06:13:17.676Z,50.908092
2023-04-08T06:14:17.693Z,50.908092
2023-04-08T06:15:17.673Z,50.908150
2023-04-08T06:16:19.535Z,50.908112
2023-04-08T06:17:17.676Z,50.908123
2023-04-08T06:18:17.657Z,50.908104
2023-04-08T06:19:17.662Z,50.908131
2023-04-08T06:20:17.626Z,50.908100
2023-04-08T06:21:17.617Z,50.908127
2023-04-08T06:22:17.607Z,50.908142
2023-04-08T06:23:17.598Z,50.908173
2023-04-08T06:24:17.614Z,50.908112
2023-04-08T06:25:17.585Z,50.908138
2023-04-08T06:26:17.580Z,50.908062
2023-04-08T06:27:17.572Z,50.908062
2023-04-08T06:28:17.564Z,50.908085
2023-04-08T06:29:17.590Z,50.908058
2023-04-08T06:30:17.556Z,50.908085
2023-04-08T06:31:17.571Z,50.908047
2023-04-08T06:32:17.544Z,50.908119
2023-04-08T06:33:17.547Z,50.908127
2023-04-08T06:34:17.557Z,50.908127
2023-04-08T06:35:17.566Z,50.908154
2023-04-08T06:36:17.508Z,50.908108
2023-04-08T06:37:17.503Z,50.908119
2023-04-08T06:38:17.493Z,50.908161
2023-04-08T06:39:17.481Z,50.908070
2023-04-08T06:40:17.499Z,50.908127
2023-04-08T06:41:17.468Z,50.908115
2023-04-08T06:42:17.455Z,50.908104
2023-04-08T06:43:17.712Z,50.908112
2023-04-08T06:44:17.449Z,50.908066
2023-04-08T06:45:17.455Z,50.908146
2023-04-08T06:46:17.453Z,50.908142
2023-04-08T06:47:17.421Z,50.908195
2023-04-08T06:48:17.421Z,50.908188
2023-04-08T06:49:17.408Z,50.908100
2023-04-08T06:50:17.429Z,50.908119
2023-04-08T06:51:17.389Z,50.908157
2023-04-08T06:52:17.382Z,50.908184
2023-04-08T06:53:17.370Z,50.908108
2023-04-08T06:54:17.366Z,50.908123
2023-04-08T06:55:17.381Z,50.908165
2023-04-08T06:56:17.363Z,50.908112
2023-04-08T06:57:17.342Z,50.908112
2023-04-08T06:58:17.331Z,50.908054
2023-04-08T06:59:17.322Z,50.908100
2023-04-08T07:00:17.345Z,50.908146
2023-04-08T07:01:17.344Z,50.908112
2023-04-08T07:02:17.334Z,50.908112
2023-04-08T07:03:17.337Z,50.908100
2023-04-08T07:04:17.330Z,50.908112
2023-04-08T07:05:17.316Z,50.908169
2023-04-08T07:06:17.272Z,50.908001
2023-04-08T07:07:17.261Z,50.907997
2023-04-08T07:08:17.250Z,50.908096
2023-04-08T07:09:17.247Z,50.908108
2023-04-08T07:10:17.359Z,50.908089
2023-04-08T07:11:17.243Z,50.908150
2023-04-08T07:12:17.221Z,50.908180
2023-04-08T07:13:17.236Z,50.908241
2023-04-08T07:14:17.212Z,50.908279
2023-04-08T07:15:17.225Z,50.908119
2023-04-08T07:16:17.215Z,50.908024
2023-04-08T07:17:17.185Z,50.908249
2023-04-08T07:18:17.176Z,50.908218
2023-04-08T07:19:17.170Z,50.908234
2023-04-08T07:20:17.195Z,50.908367
2023-04-08T07:21:17.156Z,50.908218
2023-04-08T07:22:18.036Z,50.908180
2023-04-08T07:23:17.141Z,50.908131
2023-04-08T07:24:17.128Z,50.908157
2023-04-08T07:25:17.150Z,50.908054
2023-04-08T07:26:17.121Z,50.908184
2023-04-08T07:27:17.103Z,50.908085
2023-04-08T07:28:17.095Z,50.908043
2023-04-08T07:29:17.085Z,50.908127
2023-04-08T07:30:17.119Z,50.908100
2023-04-08T07:31:17.094Z,50.908241
2023-04-08T07:32:17.067Z,50.908306
2023-04-08T07:33:17.058Z,50.908184
2023-04-08T07:34:17.057Z,50.908092
2023-04-08T07:35:17.066Z,50.908031
2023-04-08T07:36:17.034Z,50.908039
2023-04-08T07:37:17.027Z,50.908043
2023-04-08T07:38:17.017Z,50.908077
2023-04-08T07:39:17.022Z,50.908115
2023-04-08T07:40:17.033Z,50.908169
2023-04-08T07:41:17.013Z,50.908031
2023-04-08T07:42:16.988Z,50.908123
2023-04-08T07:43:17.001Z,50.908131
2023-04-08T07:44:16.983Z,50.908104
2023-04-08T07:45:16.990Z,50.908047
2023-04-08T07:46:16.978Z,50.908119
2023-04-08T07:47:16.947Z,50.908073
2023-04-08T07:48:16.938Z,50.908112
2023-04-08T07:49:16.933Z,50.908085
2023-04-08T07:50:16.955Z,50.908100
2023-04-08T07:51:16.922Z,50.908138
2023-04-08T07:52:16.914Z,50.908138
2023-04-08T07:53:16.904Z,50.908154
2023-04-08T07:54:16.895Z,50.908096
2023-04-08T07:55:16.912Z,50.908131
2023-04-08T07:56:16.877Z,50.908089
2023-04-08T07:57:16.891Z,50.908115
2023-04-08T07:58:16.870Z,50.908138
2023-04-08T07:59:16.856Z,50.908119
2023-04-08T08:00:16.884Z,50.908131
2023-04-08T08:01:16.834Z,50.908131
2023-04-08T08:02:16.953Z,50.908150
2023-04-08T08:03:16.868Z,50.908127
2023-04-08T08:04:16.961Z,50.908146
2023-04-08T08:05:16.925Z,50.908112
2023-04-08T08:06:16.803Z,50.908119
2023-04-08T08:07:16.798Z,50.908073
2023-04-08T08:08:16.780Z,50.908077
2023-04-08T08:09:16.777Z,50.908085
2023-04-08T08:10:16.796Z,50.908073
2023-04-08T08:11:16.790Z,50.908085
2023-04-08T08:12:16.755Z,50.908073
2023-04-08T08:13:16.744Z,50.908073
2023-04-08T08:14:16.742Z,50.908104
2023-04-08T08:15:16.754Z,50.908115
2023-04-08T08:16:16.761Z,50.908112
2023-04-08T08:17:16.712Z,50.908085
2023-04-08T08:18:16.710Z,50.908188
2023-04-08T08:19:16.696Z,50.908134
2023-04-08T08:20:16.738Z,50.908108
2023-04-08T08:21:16.733Z,50.908100
2023-04-08T08:22:16.674Z,50.908138
2023-04-08T08:23:16.666Z,50.908150
2023-04-08T08:24:16.658Z,50.908127
2023-04-08T08:25:16.680Z,50.908104
2023-04-08T08:26:16.646Z,50.908092
2023-04-08T08:27:16.639Z,50.908092
2023-04-08T08:28:16.624Z,50.908085
2023-04-08T08:29:16.622Z,50.908115
2023-04-08T08:30:16.633Z,50.908157
2023-04-08T08:31:16.631Z,50.908096
2023-04-08T08:32:16.598Z,50.908134
2023-04-08T08:33:16.590Z,50.908150
2023-04-08T08:34:16.580Z,50.908157
2023-04-08T08:35:16.606Z,50.908173
2023-04-08T08:36:16.620Z,50.908131
2023-04-08T08:37:16.588Z,50.908123
2023-04-08T08:38:16.568Z,50.908115
2023-04-08T08:39:16.555Z,50.908108
2023-04-08T08:40:16.563Z,50.908104
2023-04-08T08:41:16.530Z,50.908123
2023-04-08T08:42:16.525Z,50.908054
2023-04-08T08:43:16.521Z,50.908081
2023-04-08T08:44:16.511Z,50.908134
2023-04-08T08:45:16.532Z,50.908150
2023-04-08T08:46:16.513Z,50.908112
2023-04-08T08:47:16.494Z,50.908131
2023-04-08T08:48:16.484Z,50.908142
2023-04-08T08:49:16.470Z,50.908134
2023-04-08T08:50:16.500Z,50.908127
2023-04-08T08:51:16.459Z,50.908157
2023-04-08T08:52:16.453Z,50.908085
2023-04-08T08:53:16.464Z,50.908092
2023-04-08T08:54:16.431Z,50.908089
2023-04-08T08:55:32.490Z,50.908077
2023-04-08T08:56:19.114Z,50.908127
2023-04-08T08:57:17.408Z,50.908123
2023-04-08T08:58:16.401Z,50.908096
2023-04-08T08:59:16.390Z,50.908089
2023-04-08T09:00:16.402Z,50.908089
2023-04-08T09:01:16.374Z,50.908077
2023-04-08T09:02:16.522Z,50.908031
2023-04-08T09:03:16.573Z,50.908089
2023-04-08T09:04:16.610Z,50.908104
2023-04-08T09:05:16.517Z,50.908085
2023-04-08T09:06:16.325Z,50.908119
2023-04-08T09:07:17.327Z,50.908070
2023-04-08T09:08:16.315Z,50.908070
2023-04-08T09:09:16.316Z,50.908112
2023-04-08T09:10:16.306Z,50.908089
2023-04-08T09:11:16.331Z,50.908104
2023-04-08T09:12:17.968Z,50.908100
2023-04-08T09:13:16.270Z,50.908089
2023-04-08T09:14:17.278Z,50.908100
2023-04-08T09:15:16.264Z,50.908127
2023-04-08T09:16:16.295Z,50.908203
2023-04-08T09:17:16.246Z,50.908173
2023-04-08T09:18:17.779Z,50.908173
2023-04-08T09:19:16.234Z,50.908123
2023-04-08T09:20:16.226Z,50.908165
2023-04-08T09:21:16.244Z,50.908131
2023-04-08T09:22:16.218Z,50.908123
2023-04-08T09:23:16.199Z,50.908150
2023-04-08T09:24:17.795Z,50.908226
2023-04-08T09:25:16.186Z,50.908180
2023-04-08T09:26:16.236Z,50.908096
2023-04-08T09:27:16.170Z,50.908154
2023-04-08T09:28:16.159Z,50.908157
2023-04-08T09:29:25.981Z,50.908127
2023-04-08T09:30:18.143Z,50.908115
2023-04-08T09:31:16.188Z,50.908283
2023-04-08T09:32:16.124Z,50.908222
2023-04-08T09:33:16.118Z,50.908058
2023-04-08T09:34:16.114Z,50.908119
2023-04-08T09:35:16.108Z,50.908058
2023-04-08T09:36:16.150Z,50.908150
2023-04-08T09:37:16.090Z,50.908119
2023-04-08T09:38:16.085Z,50.908138
2023-04-08T09:39:16.073Z,50.908173
2023-04-08T09:40:16.069Z,50.908215
2023-04-08T09:41:16.096Z,50.907974
2023-04-08T09:42:16.058Z,50.908005
2023-04-08T09:43:16.033Z,50.908104
2023-04-08T09:44:16.028Z,50.908161
2023-04-08T09:45:16.037Z,50.908104
2023-04-08T09:46:16.185Z,50.908169
2023-04-08T09:47:16.012Z,50.908154
2023-04-08T09:48:16.602Z,50.908150
2023-04-08T09:49:16.991Z,50.908176
2023-04-08T09:50:15.988Z,50.908161
2023-04-08T09:51:16.006Z,50.908169
2023-04-08T09:52:15.989Z,50.908108
2023-04-08T09:53:15.959Z,50.908119
2023-04-08T09:54:15.950Z,50.908096
2023-04-08T09:55:15.947Z,50.908234
2023-04-08T09:56:15.961Z,50.908173
2023-04-08T09:57:15.927Z,50.908127
2023-04-08T09:58:15.918Z,50.908127
2023-04-08T09:59:15.913Z,50.908180
2023-04-08T10:00:15.902Z,50.908195
2023-04-08T10:01:15.964Z,50.908081
2023-04-08T10:02:15.938Z,50.908096
2023-04-08T10:03:16.073Z,50.908089
2023-04-08T10:04:15.901Z,50.908112
2023-04-08T10:05:15.865Z,50.908096
2023-04-08T10:06:15.884Z,50.908123
2023-04-08T10:07:15.840Z,50.908054
2023-04-08T10:08:16.845Z,50.908203
2023-04-08T10:09:15.833Z,50.908497
2023-04-08T10:10:15.832Z,50.908485
2023-04-08T10:11:15.818Z,50.908257
2023-04-08T10:12:15.836Z,50.908176
2023-04-08T10:13:15.807Z,50.908108
2023-04-08T10:14:15.793Z,50.908100
2023-04-08T10:15:15.799Z,50.908142
2023-04-08T10:16:15.799Z,50.908302
2023-04-08T10:17:15.793Z,50.908192
2023-04-08T10:18:15.766Z,50.908257
2023-04-08T10:19:15.755Z,50.908241
2023-04-08T10:20:15.746Z,50.908245
2023-04-08T10:21:15.751Z,50.908226
2023-04-08T10:22:15.766Z,50.908226
2023-04-08T10:23:15.731Z,50.908150
2023-04-08T10:24:15.728Z,50.908123
2023-04-08T10:25:15.732Z,50.908112
2023-04-08T10:26:15.705Z,50.908012
2023-04-08T10:27:15.716Z,50.908066
2023-04-08T10:28:15.690Z,50.908237
2023-04-08T10:29:15.691Z,50.907970
2023-04-08T10:30:15.675Z,50.908112
2023-04-08T10:31:15.666Z,50.908157
2023-04-08T10:32:15.682Z,50.908127
2023-04-08T10:33:15.648Z,50.908028
2023-04-08T10:34:15.647Z,50.908123
2023-04-08T10:35:15.639Z,50.908169
2023-04-08T10:36:15.673Z,50.908119
2023-04-08T10:37:15.646Z,50.908077
2023-04-08T10:38:15.610Z,50.908089
2023-04-08T10:39:15.603Z,50.908138
2023-04-08T10:40:15.602Z,50.908096
2023-04-08T10:41:15.591Z,50.908096
2023-04-08T10:42:15.601Z,50.908138
2023-04-08T10:43:15.579Z,50.908150
2023-04-08T10:44:15.568Z,50.908073
2023-04-08T10:45:15.558Z,50.908070
2023-04-08T10:46:15.596Z,50.908070
2023-04-08T10:47:15.579Z,50.908070
2023-04-08T10:48:15.530Z,50.908070
2023-04-08T10:49:15.530Z,50.908070
2023-04-08T10:50:15.600Z,50.908070
2023-04-08T10:51:15.522Z,50.908070
2023-04-08T10:52:15.541Z,50.908070
2023-04-08T10:53:15.503Z,50.908070
2023-04-08T10:54:15.495Z,50.908169
2023-04-08T10:55:15.494Z,50.908188
2023-04-08T10:56:15.552Z,50.908207
2023-04-08T10:57:15.507Z,50.908119
2023-04-08T10:58:15.468Z,50.908188
2023-04-08T10:59:15.456Z,50.908134
2023-04-08T11:00:15.469Z,50.908154
2023-04-08T11:01:15.460Z,50.908066
2023-04-08T11:02:15.602Z,50.908142
2023-04-08T11:03:15.917Z,50.908207
2023-04-08T11:04:16.587Z,50.908195
2023-04-08T11:05:15.411Z,50.908165
2023-04-08T11:06:15.411Z,50.908215
2023-04-08T11:07:15.428Z,50.908134
2023-04-08T11:08:15.389Z,50.908154
2023-04-08T11:09:15.387Z,50.908165
2023-04-08T11:10:15.463Z,50.908207
2023-04-08T11:11:15.429Z,50.908234
2023-04-08T11:12:15.382Z,50.908215
2023-04-08T11:13:15.353Z,50.908249
2023-04-08T11:14:15.345Z,50.908180
2023-04-08T11:15:15.330Z,50.908203
2023-04-08T11:16:18.253Z,50.908176
2023-04-08T11:17:16.348Z,50.908169
2023-04-08T11:18:15.313Z,50.908165
2023-04-08T11:19:15.304Z,50.908115
2023-04-08T11:20:15.305Z,50.908115
2023-04-08T11:21:15.293Z,50.908134
2023-04-08T11:22:15.308Z,50.908169
2023-04-08T11:23:15.285Z,50.908112
2023-04-08T11:24:15.268Z,50.908199